Country
Station

 

Weather  for  Ainsworth Municipal  -  United States    United States

  
-1 °C (30 °F)
    
 
 

Current METAR for Ainsworth Municipal is :

KANW 221615Z AUTO 21009KT 10SM CLR M01/M04 A3016 RMK AO2 T10101045

 

This is a report for Ainsworth Municipal - United States.
 
The report was made 21 minutes ago, at 16:15 UTC .
The wind was blowing at a speed of 4.6 meters per second (10.4 miles per hour) from south/southwest (210°).
 
The temperature was -1 °C (30 °F), with a dew-point at -4 °C (25 °F).
The temperature felt like -6 °C (21 °F).
 
The atmospheric pressure was 1021 hPa (30.16 inHg).
The relative humidity was 80.0%.
 
The sky was clear.
 
The overall visibility was 16.1 kilometers (10.0 miles).
 

 
 
 
 

Country :   A   B   C   D   E   F   G   H   I   J   K   L   M   N   O   P   Q   R   S   T   U   V   W   Y   Z

 

Site Info  |  Disclaimer  |  Credits  |  Privacy
Contact us  |  Add to favorites
© 2013-2019 METARs - All rights reserved